createdAt,value
2023-01-29T00:00:29.979Z,20.15
2023-01-29T00:03:32.892Z,16.85
2023-01-29T00:06:36.772Z,17.48
2023-01-29T00:09:40.000Z,15.32
2023-01-29T00:12:42.535Z,18.98
2023-01-29T00:15:53.990Z,20.27
2023-01-29T00:18:56.617Z,18.08
2023-01-29T00:22:00.484Z,16.60
2023-01-29T00:25:03.135Z,21.55
2023-01-29T00:28:06.127Z,16.35
2023-01-29T00:31:09.666Z,23.30
2023-01-29T00:34:12.235Z,21.05
2023-01-29T00:37:16.173Z,20.45
2023-01-29T00:40:19.107Z,22.00
2023-01-29T00:43:39.147Z,16.85
2023-01-29T00:46:41.734Z,16.02
2023-01-29T00:49:44.260Z,20.60
2023-01-29T00:52:49.610Z,20.10
2023-01-29T00:55:52.149Z,16.45
2023-01-29T00:58:54.702Z,15.98
2023-01-29T01:02:14.724Z,17.73
2023-01-29T01:05:18.788Z,22.65
2023-01-29T01:08:40.439Z,21.58
2023-01-29T01:11:42.956Z,17.58
2023-01-29T01:14:46.036Z,17.85
2023-01-29T01:17:49.565Z,20.33
2023-01-29T01:20:57.821Z,17.10
2023-01-29T01:24:01.777Z,17.70
2023-01-29T01:27:04.376Z,19.55
2023-01-29T01:30:09.611Z,16.13
2023-01-29T01:33:12.194Z,16.92
2023-01-29T01:36:15.840Z,16.35
2023-01-29T01:39:19.715Z,18.40
2023-01-29T01:42:22.333Z,19.88
2023-01-29T01:45:26.914Z,18.33
2023-01-29T01:48:29.528Z,20.63
2023-01-29T01:51:32.627Z,22.00
2023-01-29T01:54:36.500Z,21.10
2023-01-29T01:57:39.073Z,20.45
2023-01-29T02:00:41.668Z,18.45
2023-01-29T02:04:03.098Z,23.80
2023-01-29T02:07:23.399Z,23.33
2023-01-29T02:10:27.321Z,23.48
2023-01-29T02:13:29.845Z,28.13
2023-01-29T02:16:33.109Z,25.23
2023-01-29T02:19:40.611Z,23.73
2023-01-29T02:26:21.414Z,28.42
2023-01-29T02:29:28.708Z,28.58
2023-01-29T02:32:32.390Z,26.23
2023-01-29T02:35:37.413Z,27.42
2023-01-29T02:38:42.774Z,27.52
2023-01-29T02:41:47.029Z,28.25
2023-01-29T02:44:53.245Z,29.00
2023-01-29T02:47:58.481Z,27.55
2023-01-29T02:51:03.510Z,29.17
2023-01-29T02:54:08.704Z,33.67
2023-01-29T02:57:14.752Z,31.70
2023-01-29T03:00:19.699Z,37.88
2023-01-29T03:03:24.484Z,32.53
2023-01-29T03:06:28.517Z,36.90
2023-01-29T03:09:34.042Z,31.20
2023-01-29T03:12:36.733Z,31.00
2023-01-29T03:15:42.465Z,31.10
2023-01-29T03:18:48.653Z,27.10
2023-01-29T03:21:55.239Z,26.50
2023-01-29T03:25:16.552Z,25.93
2023-01-29T03:28:36.912Z,27.63
2023-01-29T03:31:58.653Z,26.45
2023-01-29T03:35:03.924Z,30.58
2023-01-29T03:38:09.750Z,24.60
2023-01-29T03:41:19.385Z,28.02
2023-01-29T03:44:26.387Z,27.92
2023-01-29T03:47:34.496Z,27.38
2023-01-29T03:50:39.796Z,26.85
2023-01-29T03:53:44.158Z,29.08
2023-01-29T03:56:54.430Z,28.95
2023-01-29T03:59:58.884Z,25.90
2023-01-29T04:03:05.381Z,28.45
2023-01-29T04:06:12.394Z,26.42
2023-01-29T04:09:16.895Z,24.65
2023-01-29T04:12:21.155Z,25.58
2023-01-29T04:15:23.835Z,25.08
2023-01-29T04:18:27.779Z,24.05
2023-01-29T04:21:31.763Z,27.02
2023-01-29T04:24:34.367Z,31.15
2023-01-29T04:27:41.625Z,26.90
2023-01-29T04:30:46.615Z,22.90
2023-01-29T04:33:53.855Z,25.85
2023-01-29T04:37:03.571Z,25.25
2023-01-29T04:40:13.972Z,24.40
2023-01-29T04:43:19.062Z,26.52
2023-01-29T04:46:23.527Z,23.95
2023-01-29T04:49:34.292Z,26.38
2023-01-29T04:52:40.378Z,25.48
2023-01-29T04:55:44.856Z,22.77
2023-01-29T04:58:48.494Z,24.52
2023-01-29T05:01:51.037Z,27.00
2023-01-29T05:04:55.085Z,26.10
2023-01-29T05:07:57.682Z,24.65
2023-01-29T05:11:00.427Z,24.02
2023-01-29T05:14:03.758Z,24.90
2023-01-29T05:17:08.677Z,30.17
2023-01-29T05:20:13.488Z,25.35
2023-01-29T05:23:17.068Z,26.50
2023-01-29T05:26:37.193Z,26.70
2023-01-29T05:29:40.163Z,24.35
2023-01-29T05:32:42.741Z,26.38
2023-01-29T05:35:46.988Z,26.77
2023-01-29T05:38:49.809Z,26.38
2023-01-29T05:41:52.383Z,27.67
2023-01-29T05:44:55.040Z,24.85
2023-01-29T05:47:57.939Z,29.33
2023-01-29T05:51:02.299Z,25.45
2023-01-29T05:54:05.088Z,28.63
2023-01-29T05:57:07.624Z,27.45
2023-01-29T06:00:13.029Z,27.52
2023-01-29T06:03:16.052Z,26.27
2023-01-29T06:06:19.991Z,27.10
2023-01-29T06:09:22.573Z,26.02
2023-01-29T06:12:25.148Z,26.70
2023-01-29T06:15:27.733Z,29.60
2023-01-29T06:18:30.258Z,26.08
2023-01-29T06:21:34.176Z,27.35
2023-01-29T06:24:37.264Z,28.73
2023-01-29T06:27:39.832Z,26.02
2023-01-29T06:30:42.450Z,26.98
2023-01-29T06:33:45.035Z,29.85
2023-01-29T06:36:48.953Z,28.25
2023-01-29T06:39:51.527Z,24.90
2023-01-29T06:42:54.114Z,26.95
2023-01-29T06:45:57.503Z,28.23
2023-01-29T06:49:01.055Z,28.35
2023-01-29T06:52:05.128Z,26.65
2023-01-29T06:55:08.580Z,26.25
2023-01-29T06:58:12.633Z,26.42
2023-01-29T07:01:29.288Z,25.23
2023-01-29T07:04:37.702Z,27.27
2023-01-29T07:07:41.591Z,25.23
2023-01-29T07:10:44.162Z,28.80
2023-01-29T07:13:46.753Z,31.73
2023-01-29T07:16:49.326Z,30.20
2023-01-29T07:19:51.857Z,32.05
2023-01-29T07:22:55.747Z,28.23
2023-01-29T07:26:01.004Z,31.50
2023-01-29T07:29:03.615Z,40.22
2023-01-29T07:32:07.693Z,35.42
2023-01-29T07:35:10.570Z,30.90
2023-01-29T07:38:14.506Z,30.33
2023-01-29T07:41:17.073Z,30.38
2023-01-29T07:44:19.599Z,29.67
2023-01-29T07:47:22.167Z,31.20
2023-01-29T07:50:24.928Z,32.03
2023-01-29T07:53:29.070Z,32.90
2023-01-29T07:56:31.649Z,31.75
2023-01-29T07:59:34.234Z,34.58
2023-01-29T08:02:36.876Z,34.08
2023-01-29T08:05:39.503Z,32.80
2023-01-29T08:08:43.407Z,47.22
2023-01-29T08:11:45.935Z,30.73
2023-01-29T08:14:48.533Z,31.10
2023-01-29T08:17:57.769Z,35.63
2023-01-29T08:21:01.795Z,34.50
2023-01-29T08:24:06.484Z,32.60
2023-01-29T08:27:09.107Z,34.72
2023-01-29T08:30:12.954Z,36.35
2023-01-29T08:33:17.564Z,35.22
2023-01-29T08:36:20.341Z,34.08
2023-01-29T08:39:24.278Z,32.42
2023-01-29T08:42:26.890Z,32.05
2023-01-29T08:45:30.085Z,32.85
2023-01-29T08:48:33.211Z,31.27
2023-01-29T08:51:35.796Z,34.92
2023-01-29T08:54:39.737Z,35.97
2023-01-29T08:57:42.325Z,35.28
2023-01-29T09:00:45.038Z,34.72
2023-01-29T09:03:47.640Z,37.22
2023-01-29T09:06:50.236Z,40.80
2023-01-29T09:09:55.250Z,36.88
2023-01-29T09:12:57.770Z,36.80
2023-01-29T09:16:01.102Z,41.63
2023-01-29T09:19:03.687Z,36.08
2023-01-29T09:22:06.305Z,35.80
2023-01-29T09:25:10.735Z,39.38
2023-01-29T09:28:13.349Z,39.13
2023-01-29T09:31:15.972Z,41.67
2023-01-29T09:34:18.626Z,44.03
2023-01-29T09:37:23.133Z,36.72
2023-01-29T09:40:27.947Z,39.45
2023-01-29T09:43:37.196Z,36.78
2023-01-29T09:46:41.026Z,41.20
2023-01-29T09:49:46.703Z,40.28
2023-01-29T09:52:51.635Z,41.83
2023-01-29T09:55:57.375Z,39.03
2023-01-29T09:59:01.658Z,41.33
2023-01-29T10:02:09.903Z,38.17
2023-01-29T10:05:22.265Z,40.65
2023-01-29T10:08:42.359Z,37.85
2023-01-29T10:11:47.665Z,36.22
2023-01-29T10:14:54.343Z,39.05
2023-01-29T10:18:07.359Z,39.93
2023-01-29T10:21:18.016Z,39.85
2023-01-29T10:24:25.299Z,44.42
2023-01-29T10:27:32.935Z,37.90
2023-01-29T10:30:38.143Z,39.42
2023-01-29T10:34:01.007Z,46.58
2023-01-29T10:37:09.359Z,40.15
2023-01-29T10:40:19.825Z,47.38
2023-01-29T10:43:27.920Z,42.05
2023-01-29T10:46:37.728Z,39.33
2023-01-29T10:49:50.227Z,42.22
2023-01-29T10:53:04.697Z,39.53
2023-01-29T10:56:22.351Z,42.35
2023-01-29T10:59:37.770Z,40.33
2023-01-29T11:02:44.812Z,40.13
2023-01-29T11:05:51.424Z,41.35
2023-01-29T11:08:55.414Z,45.80
2023-01-29T11:11:58.884Z,40.13
2023-01-29T11:15:04.151Z,44.13
2023-01-29T11:18:10.569Z,37.97
2023-01-29T11:21:13.141Z,46.40
2023-01-29T11:24:17.514Z,41.72
2023-01-29T11:27:25.722Z,40.83
2023-01-29T11:30:30.031Z,41.00
2023-01-29T11:33:32.643Z,33.30
2023-01-29T11:36:37.983Z,41.47
2023-01-29T11:39:40.514Z,46.53
2023-01-29T11:42:43.080Z,43.88
2023-01-29T11:45:47.094Z,40.08
2023-01-29T11:48:51.540Z,42.38
2023-01-29T11:51:54.336Z,40.80
2023-01-29T11:54:58.268Z,36.80
2023-01-29T11:58:02.875Z,45.10
2023-01-29T12:01:06.923Z,41.83
2023-01-29T12:04:16.218Z,41.50
2023-01-29T12:07:19.175Z,40.38
2023-01-29T12:10:32.743Z,40.50
2023-01-29T12:13:36.042Z,38.97
2023-01-29T12:16:41.138Z,39.58
2023-01-29T12:19:45.513Z,38.28
2023-01-29T12:22:51.369Z,37.88
2023-01-29T12:25:58.015Z,38.20
2023-01-29T12:29:25.172Z,38.23
2023-01-29T12:32:33.135Z,40.63
2023-01-29T12:35:37.554Z,39.60
2023-01-29T12:38:40.956Z,36.72
2023-01-29T12:41:46.127Z,36.67
2023-01-29T12:44:50.803Z,38.85
2023-01-29T12:47:56.489Z,37.85
2023-01-29T12:51:02.335Z,39.08
2023-01-29T12:54:06.100Z,35.15
2023-01-29T12:57:10.991Z,39.00
2023-01-29T13:00:15.528Z,37.30
2023-01-29T13:03:22.018Z,35.03
2023-01-29T13:06:27.413Z,34.25
2023-01-29T13:09:31.026Z,34.15
2023-01-29T13:12:33.572Z,34.65
2023-01-29T13:15:36.782Z,35.75
2023-01-29T13:18:44.113Z,38.40
2023-01-29T13:21:46.657Z,34.58
2023-01-29T13:24:58.758Z,33.70
2023-01-29T13:28:06.473Z,37.90
2023-01-29T13:31:21.705Z,29.92
2023-01-29T13:34:26.372Z,31.45
2023-01-29T13:37:31.772Z,35.38
2023-01-29T13:40:35.471Z,33.58
2023-01-29T13:43:39.247Z,33.88
2023-01-29T13:46:42.182Z,31.70
2023-01-29T13:49:46.985Z,34.83
2023-01-29T13:52:54.307Z,37.47
2023-01-29T13:55:56.870Z,30.08
2023-01-29T13:58:59.666Z,36.58
2023-01-29T14:02:04.728Z,31.83
2023-01-29T14:05:42.552Z,35.53
2023-01-29T14:08:45.252Z,34.35
2023-01-29T14:11:48.975Z,36.22
2023-01-29T14:14:52.801Z,35.35
2023-01-29T14:17:56.969Z,30.98
2023-01-29T14:21:04.976Z,33.15
2023-01-29T14:24:12.695Z,31.13
2023-01-29T14:27:20.373Z,31.77
2023-01-29T14:30:28.830Z,31.70
2023-01-29T14:33:35.479Z,32.08
2023-01-29T14:36:42.659Z,34.77
2023-01-29T14:39:45.933Z,30.83
2023-01-29T14:42:55.975Z,34.92
2023-01-29T14:45:58.516Z,32.60
2023-01-29T14:49:01.063Z,35.58
2023-01-29T14:52:05.028Z,27.88
2023-01-29T14:55:08.896Z,34.20
2023-01-29T14:58:13.799Z,26.63
2023-01-29T15:01:20.265Z,34.22
2023-01-29T15:04:24.574Z,32.15
2023-01-29T15:07:31.727Z,29.98
2023-01-29T15:10:41.251Z,29.75
2023-01-29T15:13:46.304Z,31.75
2023-01-29T15:16:53.104Z,30.95
2023-01-29T15:19:56.742Z,29.02
2023-01-29T15:23:00.860Z,33.53
2023-01-29T15:26:05.440Z,35.72
2023-01-29T15:29:07.976Z,39.30
2023-01-29T15:32:14.530Z,35.53
2023-01-29T15:35:25.840Z,34.13
2023-01-29T15:38:29.822Z,31.13
2023-01-29T15:41:32.363Z,37.22
2023-01-29T15:44:34.988Z,33.92
2023-01-29T15:47:37.612Z,34.58
2023-01-29T15:50:41.309Z,32.22
2023-01-29T15:53:46.945Z,37.78
2023-01-29T15:56:51.254Z,36.80
2023-01-29T15:59:54.773Z,35.75
2023-01-29T16:02:57.596Z,32.22
2023-01-29T16:06:00.245Z,32.67
2023-01-29T16:09:04.595Z,37.78
2023-01-29T16:12:07.496Z,32.90
2023-01-29T16:15:24.334Z,31.58
2023-01-29T16:18:30.197Z,32.47
2023-01-29T16:21:33.911Z,33.50
2023-01-29T16:24:38.317Z,29.92
2023-01-29T16:27:43.174Z,30.40
2023-01-29T16:30:45.732Z,41.90
2023-01-29T16:33:49.510Z,36.22
2023-01-29T16:36:53.511Z,34.53
2023-01-29T16:39:58.332Z,35.60
2023-01-29T16:43:31.351Z,35.88
2023-01-29T16:46:37.172Z,39.75
2023-01-29T16:49:44.784Z,40.30
2023-01-29T16:56:04.901Z,31.35
2023-01-29T16:59:07.595Z,32.28
2023-01-29T17:02:14.544Z,37.28
2023-01-29T17:05:20.563Z,37.78
2023-01-29T17:08:24.639Z,31.63
2023-01-29T17:11:32.734Z,39.03
2023-01-29T17:14:35.940Z,40.00
2023-01-29T17:17:38.567Z,33.70
2023-01-29T17:20:41.154Z,36.72
2023-01-29T17:23:43.723Z,40.58
2023-01-29T17:26:47.683Z,35.42
2023-01-29T17:29:52.060Z,37.47
2023-01-29T17:32:55.209Z,40.15
2023-01-29T17:35:57.757Z,39.40
2023-01-29T17:39:01.100Z,31.65
2023-01-29T17:42:05.205Z,39.05
2023-01-29T17:45:08.796Z,39.95
2023-01-29T17:48:13.203Z,34.47
2023-01-29T17:51:16.610Z,36.42
2023-01-29T17:54:19.142Z,37.15
2023-01-29T17:57:23.067Z,35.53
2023-01-29T18:00:25.850Z,36.13
2023-01-29T18:03:28.471Z,33.70
2023-01-29T18:06:31.028Z,46.08
2023-01-29T18:09:33.553Z,38.03
2023-01-29T18:12:37.428Z,35.20
2023-01-29T18:15:40.093Z,39.63
2023-01-29T18:18:42.701Z,37.13
2023-01-29T18:21:45.283Z,34.70
2023-01-29T18:24:47.879Z,35.97
2023-01-29T18:27:51.766Z,37.05
2023-01-29T18:30:54.333Z,36.17
2023-01-29T18:33:56.966Z,35.53
2023-01-29T18:37:00.215Z,33.97
2023-01-29T18:40:02.798Z,33.03
2023-01-29T18:43:06.671Z,36.35
2023-01-29T18:46:09.321Z,36.42
2023-01-29T18:49:11.878Z,36.47
2023-01-29T18:52:14.460Z,38.88
2023-01-29T18:55:17.512Z,36.38
2023-01-29T18:58:26.624Z,35.38
2023-01-29T19:01:36.421Z,29.00
2023-01-29T19:04:38.951Z,34.40
2023-01-29T19:07:41.498Z,34.47
2023-01-29T19:10:44.320Z,34.03
2023-01-29T19:13:49.736Z,38.42
2023-01-29T19:16:52.306Z,36.63
2023-01-29T19:19:56.491Z,33.30
2023-01-29T19:22:59.500Z,40.58
2023-01-29T19:26:02.062Z,38.28
2023-01-29T19:29:07.493Z,33.75
2023-01-29T19:32:11.572Z,35.67
2023-01-29T19:35:14.161Z,35.88
2023-01-29T19:38:20.918Z,38.22
2023-01-29T19:41:23.528Z,42.72
2023-01-29T19:44:27.496Z,36.83
2023-01-29T19:47:30.105Z,35.08
2023-01-29T19:50:32.718Z,36.90
2023-01-29T19:53:35.522Z,36.38
2023-01-29T19:56:38.053Z,38.47
2023-01-29T19:59:45.593Z,36.00
2023-01-29T20:02:48.499Z,39.30
2023-01-29T20:05:51.062Z,42.78
2023-01-29T20:08:53.625Z,41.80
2023-01-29T20:11:56.225Z,38.80
2023-01-29T20:15:00.151Z,38.38
2023-01-29T20:18:03.822Z,41.83
2023-01-29T20:21:07.154Z,31.20
2023-01-29T20:24:12.360Z,37.83
2023-01-29T20:27:14.958Z,37.97
2023-01-29T20:30:19.565Z,33.97
2023-01-29T20:33:22.309Z,29.95
2023-01-29T20:36:24.863Z,30.60
2023-01-29T20:39:27.388Z,34.72
2023-01-29T20:42:29.905Z,28.58
2023-01-29T20:45:35.896Z,36.35
2023-01-29T20:48:38.579Z,26.15
2023-01-29T20:51:41.139Z,29.90
2023-01-29T20:54:43.835Z,37.60
2023-01-29T20:57:46.547Z,36.42
2023-01-29T21:01:10.689Z,30.20
2023-01-29T21:04:13.269Z,30.65
2023-01-29T21:07:15.856Z,30.90
2023-01-29T21:10:18.779Z,29.92
2023-01-29T21:13:21.508Z,15.90
2023-01-29T21:16:26.915Z,15.15
2023-01-29T21:19:30.820Z,16.60
2023-01-29T21:22:33.361Z,13.20
2023-01-29T21:25:35.962Z,16.73
2023-01-29T21:28:38.543Z,12.35
2023-01-29T21:31:42.544Z,13.05
2023-01-29T21:34:45.189Z,8.60
2023-01-29T21:37:47.740Z,7.95
2023-01-29T21:40:50.270Z,4.22
2023-01-29T21:43:52.850Z,8.48
2023-01-29T21:46:56.812Z,18.05
2023-01-29T21:49:59.372Z,9.45
2023-01-29T21:53:02.014Z,11.13
2023-01-29T21:56:05.039Z,9.70
2023-01-29T21:59:07.630Z,15.30
2023-01-29T22:02:13.566Z,13.77
2023-01-29T22:05:19.640Z,12.93
2023-01-29T22:08:25.484Z,13.70
2023-01-29T22:11:28.330Z,7.43
2023-01-29T22:14:30.906Z,14.15
2023-01-29T22:17:35.221Z,12.35
2023-01-29T22:20:37.919Z,22.40
2023-01-29T22:23:40.513Z,11.43
2023-01-29T22:26:44.159Z,11.88
2023-01-29T22:29:46.829Z,13.23
2023-01-29T22:32:51.005Z,10.18
2023-01-29T22:35:54.611Z,18.15
2023-01-29T22:38:57.178Z,16.02
2023-01-29T22:41:59.763Z,12.95
2023-01-29T22:45:02.339Z,10.32
2023-01-29T22:48:08.188Z,14.15
2023-01-29T22:51:10.833Z,17.83
2023-01-29T22:54:15.363Z,9.98
2023-01-29T22:57:17.951Z,6.80
2023-01-29T23:00:21.321Z,14.23
2023-01-29T23:03:25.328Z,10.98
2023-01-29T23:06:27.860Z,15.40
2023-01-29T23:09:30.435Z,11.48
2023-01-29T23:12:32.995Z,14.40
2023-01-29T23:15:35.573Z,12.00
2023-01-29T23:18:39.669Z,14.82
2023-01-29T23:21:42.189Z,10.35
2023-01-29T23:24:44.764Z,9.13
2023-01-29T23:27:46.719Z,9.68
2023-01-29T23:30:51.964Z,10.30
2023-01-29T23:33:56.265Z,18.90
2023-01-29T23:36:58.933Z,12.50
2023-01-29T23:40:01.552Z,13.68
2023-01-29T23:43:04.122Z,16.27
2023-01-29T23:46:07.134Z,15.50
2023-01-29T23:49:11.021Z,13.05
2023-01-29T23:52:13.603Z,18.45
2023-01-29T23:55:16.219Z,19.38
2023-01-29T23:58:18.804Z,13.70
